Time;durP1;ratioP1;P1;durP2;ratioP2;P2;SDS_P1;SDS_P2;PMS_P1;PMS_P2;Temp;Humidity;BMP_temperature;BMP_pressure;BME280_temperature;BME280_humidity;BME280_pressure;Samples;Min_cycle;Max_cycle;Signal;HPM_P1;HPM_P2
2021/12/22 00:01:28;;;;;;;47.85;31.88;;;25.80;99.90;;;;;;5072632;28;20067;-65
2021/12/22 00:03:55;;;;;;;46.35;32.90;;;25.90;99.90;;;;;;5075780;28;20020;-65
2021/12/22 00:06:25;;;;;;;37.85;29.92;;;26.00;99.90;;;;;;5076149;28;20075;-64
2021/12/22 00:08:52;;;;;;;34.72;22.65;;;25.90;99.90;;;;;;5076211;28;20136;-65
2021/12/22 00:11:19;;;;;;;29.90;21.13;;;25.90;99.90;;;;;;5076545;28;20066;-64
2021/12/22 00:13:46;;;;;;;44.88;24.05;;;25.90;99.90;;;;;;5076349;28;20036;-63
2021/12/22 00:16:13;;;;;;;38.92;26.80;;;26.10;99.90;;;;;;5076063;28;20469;-64
2021/12/22 00:18:39;;;;;;;31.17;23.23;;;26.10;99.90;;;;;;5076082;28;20037;-64
2021/12/22 00:21:06;;;;;;;33.05;24.90;;;26.10;99.90;;;;;;5076189;28;20024;-65
2021/12/22 00:23:33;;;;;;;31.20;20.58;;;26.10;99.90;;;;;;5076316;28;20028;-64
2021/12/22 00:25:59;;;;;;;29.30;18.27;;;26.20;99.90;;;;;;5076219;28;20020;-64
2021/12/22 00:28:26;;;;;;;26.17;18.40;;;26.40;99.90;;;;;;5075521;28;20020;-64
2021/12/22 00:30:53;;;;;;;25.00;17.27;;;26.50;99.90;;;;;;5075654;28;20413;-64
2021/12/22 00:33:20;;;;;;;25.65;17.20;;;26.50;99.90;;;;;;5076151;28;20029;-64
2021/12/22 00:35:47;;;;;;;33.10;17.05;;;26.60;99.90;;;;;;5075970;28;20028;-64
2021/12/22 00:38:16;;;;;;;215.88;144.15;;;26.70;99.90;;;;;;5075629;28;20028;-65
2021/12/22 00:40:44;;;;;;;53.85;34.33;;;26.70;99.90;;;;;;5075848;28;20024;-64
2021/12/22 00:43:11;;;;;;;39.08;22.85;;;26.80;99.90;;;;;;5075214;28;20029;-64
2021/12/22 00:45:38;;;;;;;51.75;34.22;;;26.90;99.90;;;;;;5075817;28;20025;-64
2021/12/22 00:48:08;;;;;;;30.77;21.75;;;27.00;99.90;;;;;;5075881;28;20020;-64
2021/12/22 00:50:36;;;;;;;63.05;39.90;;;27.00;99.90;;;;;;5075655;28;20035;-65
2021/12/22 00:53:04;;;;;;;138.85;94.50;;;27.10;99.90;;;;;;5075630;28;20025;-64
2021/12/22 00:55:31;;;;;;;65.50;38.33;;;27.10;99.90;;;;;;5075413;28;20060;-64
2021/12/22 00:57:58;;;;;;;40.78;24.73;;;27.10;99.90;;;;;;5074870;28;20029;-64
2021/12/22 01:00:26;;;;;;;31.13;18.95;;;27.00;99.90;;;;;;5075670;28;20020;-63
2021/12/22 01:02:53;;;;;;;35.67;21.35;;;27.00;99.90;;;;;;5075600;28;20021;-65
2021/12/22 01:05:20;;;;;;;37.25;20.85;;;27.00;99.90;;;;;;5075167;28;20021;-64
2021/12/22 01:07:48;;;;;;;69.28;46.60;;;27.00;99.90;;;;;;5074731;28;20021;-64
2021/12/22 01:10:19;;;;;;;80.40;52.35;;;27.00;99.90;;;;;;5074304;28;20028;-64
2021/12/22 01:12:45;;;;;;;44.05;29.45;;;27.00;99.90;;;;;;5074846;28;20028;-64
2021/12/22 01:15:13;;;;;;;41.53;27.83;;;27.00;99.90;;;;;;5074881;28;20040;-63
2021/12/22 01:17:45;;;;;;;41.45;25.92;;;27.00;99.90;;;;;;5074996;28;20029;-63
2021/12/22 01:20:21;;;;;;;31.80;20.08;;;27.00;99.90;;;;;;5074740;28;20030;-64
2021/12/22 01:22:49;;;;;;;34.00;21.27;;;27.00;99.90;;;;;;5074997;28;20033;-63
2021/12/22 01:25:22;;;;;;;35.33;21.95;;;27.00;99.90;;;;;;5075049;28;20465;-64
2021/12/22 01:27:49;;;;;;;39.75;21.67;;;27.00;99.90;;;;;;5075004;28;20408;-64
2021/12/22 01:30:21;;;;;;;33.72;18.40;;;27.00;99.90;;;;;;5074510;28;20489;-64
2021/12/22 01:32:50;;;;;;;38.63;22.48;;;27.00;99.90;;;;;;5074375;28;20035;-64
2021/12/22 01:35:20;;;;;;;44.85;22.08;;;27.10;99.90;;;;;;5074955;28;20465;-64
2021/12/22 01:37:47;;;;;;;35.22;22.52;;;27.10;99.90;;;;;;5074320;28;20028;-64
2021/12/22 01:40:15;;;;;;;27.50;18.65;;;27.20;99.90;;;;;;5074685;28;20463;-64
2021/12/22 01:42:43;;;;;;;20.42;14.18;;;27.20;99.90;;;;;;5074372;28;20021;-64
2021/12/22 01:45:25;;;;;;;22.23;15.80;;;27.10;99.90;;;;;;5074616;28;20021;-64
2021/12/22 01:50:37;;;;;;;36.38;21.65;;;27.20;99.90;;;;;;5074183;28;20098;-63
2021/12/22 01:53:23;;;;;;;;;;;27.30;99.90;;;;;;5073965;28;20236;-64
2021/12/22 01:56:06;;;;;;;39.15;28.67;;;27.30;99.90;;;;;;5074196;28;20361;-63
2021/12/22 01:58:37;;;;;;;32.95;23.50;;;27.30;99.90;;;;;;5074215;28;20416;-63
2021/12/22 02:01:05;;;;;;;31.45;24.45;;;27.30;99.90;;;;;;5074258;28;20031;-64
2021/12/22 02:03:33;;;;;;;30.60;23.33;;;27.20;99.90;;;;;;5073478;28;20020;-63
2021/12/22 02:06:00;;;;;;;35.35;24.38;;;27.30;99.90;;;;;;5074056;28;20047;-64
2021/12/22 02:08:26;;;;;;;32.03;24.02;;;27.30;99.90;;;;;;5074019;28;20074;-64
2021/12/22 02:10:53;;;;;;;31.35;25.52;;;27.30;99.90;;;;;;5073904;28;20108;-64
2021/12/22 02:13:27;;;;;;;35.35;22.50;;;27.40;99.90;;;;;;5073949;28;20405;-63
2021/12/22 02:15:54;;;;;;;57.95;43.22;;;27.40;99.90;;;;;;5073554;28;20041;-63
2021/12/22 02:18:21;;;;;;;39.05;27.45;;;27.60;99.90;;;;;;5073851;28;20052;-63
2021/12/22 02:20:50;;;;;;;42.22;26.17;;;27.70;99.90;;;;;;5073929;28;20028;-64
2021/12/22 02:23:17;;;;;;;29.38;22.48;;;27.80;99.90;;;;;;5073646;28;20095;-64
2021/12/22 02:25:53;;;;;;;36.00;24.20;;;28.00;99.90;;;;;;5072653;28;20020;-64
2021/12/22 02:28:25;;;;;;;23.67;17.27;;;28.10;99.90;;;;;;5073596;28;20027;-63
2021/12/22 02:30:53;;;;;;;58.22;34.40;;;28.20;99.90;;;;;;5073497;28;20020;-63
2021/12/22 02:33:23;;;;;;;28.52;20.10;;;28.30;99.90;;;;;;5072658;28;20029;-63
2021/12/22 02:36:22;;;;;;;29.35;19.88;;;28.30;99.90;;;;;;5073543;28;20025;-64
2021/12/22 02:38:44;;;;;;;27.80;18.63;;;28.20;99.90;;;;;;5072983;28;20545;-64
2021/12/22 02:41:14;;;;;;;34.20;19.75;;;28.20;99.90;;;;;;5072554;28;20020;-63
2021/12/22 02:43:49;;;;;;;35.65;19.48;;;28.30;99.90;;;;;;5073272;28;20048;-63
2021/12/22 02:46:20;;;;;;;27.10;17.42;;;28.40;99.90;;;;;;5073410;28;20094;-63
2021/12/22 02:48:47;;;;;;;20.25;14.25;;;28.20;99.90;;;;;;5072243;28;20043;-63
2021/12/22 02:51:14;;;;;;;25.40;15.57;;;28.10;99.90;;;;;;5072299;28;20362;-63
2021/12/22 02:56:37;;;;;;;28.92;18.63;;;28.20;99.90;;;;;;5072458;28;20017;-64
2021/12/22 02:59:06;;;;;;;33.33;20.85;;;28.30;99.90;;;;;;5071056;28;20071;-64
2021/12/22 03:04:09;;;;;;;32.78;19.98;;;28.50;99.90;;;;;;5069297;28;20103;-64
2021/12/22 03:09:25;;;;;;;34.65;20.83;;;28.70;99.90;;;;;;5069819;28;20021;-63
2021/12/22 03:11:54;;;;;;;28.13;18.48;;;28.70;99.90;;;;;;5070409;28;20112;-64
2021/12/22 03:14:22;;;;;;;37.95;23.13;;;28.80;99.90;;;;;;5075050;28;20039;-64
2021/12/22 03:16:50;;;;;;;29.27;20.27;;;28.90;99.90;;;;;;5072980;28;20495;-64
2021/12/22 03:19:20;;;;;;;29.50;22.27;;;29.00;99.90;;;;;;5069205;28;20059;-64
2021/12/22 03:21:48;;;;;;;33.15;21.45;;;29.00;99.90;;;;;;5075310;28;20036;-64
2021/12/22 03:24:18;;;;;;;31.48;23.42;;;29.00;99.90;;;;;;5072874;28;20100;-64
2021/12/22 03:26:45;;;;;;;33.75;24.83;;;28.90;99.90;;;;;;5072649;28;20044;-64
2021/12/22 03:29:14;;;;;;;38.25;25.95;;;28.90;99.90;;;;;;5071428;28;20082;-64
2021/12/22 03:31:41;;;;;;;35.83;25.45;;;29.00;99.90;;;;;;5071303;28;20123;-63
2021/12/22 03:34:09;;;;;;;40.45;25.35;;;28.90;99.90;;;;;;5072814;28;20075;-64
2021/12/22 03:36:36;;;;;;;40.45;26.65;;;28.90;99.90;;;;;;5078374;28;20031;-65
2021/12/22 03:39:05;;;;;;;27.85;22.20;;;28.90;99.90;;;;;;5076287;28;20025;-64
2021/12/22 03:41:34;;;;;;;30.48;20.20;;;29.30;99.90;;;;;;5078668;28;20032;-63
2021/12/22 03:44:03;;;;;;;22.83;19.48;;;29.80;99.90;;;;;;5077788;28;20033;-64
2021/12/22 03:46:29;;;;;;;40.20;30.50;;;30.00;99.90;;;;;;5076950;28;20012;-64
2021/12/22 03:48:58;;;;;;;70.90;52.10;;;29.90;99.90;;;;;;5075791;28;20032;-63
2021/12/22 03:51:26;;;;;;;38.42;27.55;;;29.90;99.90;;;;;;5078425;28;20213;-64
2021/12/22 03:53:53;;;;;;;30.17;21.33;;;29.60;99.90;;;;;;5073444;28;20060;-64
2021/12/22 03:56:20;;;;;;;33.15;21.13;;;29.50;99.90;;;;;;5075972;28;20051;-64
2021/12/22 03:58:47;;;;;;;26.90;16.85;;;29.60;99.90;;;;;;5078072;28;20020;-64
2021/12/22 04:01:15;;;;;;;26.90;18.02;;;29.60;99.90;;;;;;5075561;28;20029;-64
2021/12/22 04:03:44;;;;;;;24.13;16.92;;;29.60;99.90;;;;;;5077550;28;20100;-64
2021/12/22 04:06:11;;;;;;;15.82;12.15;;;29.60;99.90;;;;;;5074448;28;20063;-64
2021/12/22 04:08:38;;;;;;;28.17;14.02;;;29.50;99.90;;;;;;5074775;28;20056;-64
2021/12/22 04:11:05;;;;;;;22.40;10.98;;;30.00;99.90;;;;;;5075613;28;20032;-65
2021/12/22 04:13:31;;;;;;;20.90;11.60;;;29.90;99.90;;;;;;5075885;28;20029;-64
2021/12/22 04:15:58;;;;;;;17.20;11.23;;;30.10;99.90;;;;;;5075591;28;20049;-65
2021/12/22 04:18:25;;;;;;;194.35;127.07;;;30.30;99.90;;;;;;5074745;28;20043;-64
2021/12/22 04:20:51;;;;;;;80.35;54.60;;;30.20;99.90;;;;;;5076004;28;20032;-63
2021/12/22 04:23:18;;;;;;;37.55;24.42;;;30.30;99.90;;;;;;5075440;28;20035;-63
2021/12/22 04:25:46;;;;;;;92.78;69.57;;;30.40;99.90;;;;;;5079725;28;20016;-67
2021/12/22 04:28:13;;;;;;;30.25;17.55;;;30.60;99.90;;;;;;5074174;28;20031;-64
2021/12/22 04:30:45;;;;;;;20.67;13.13;;;30.40;99.90;;;;;;5073726;28;20062;-64
2021/12/22 04:33:11;;;;;;;20.48;13.48;;;30.50;99.90;;;;;;5075161;28;20116;-63
2021/12/22 04:35:38;;;;;;;13.85;9.80;;;30.60;99.90;;;;;;5073823;28;20112;-65
2021/12/22 04:38:05;;;;;;;17.63;11.73;;;30.50;99.70;;;;;;5074770;28;20454;-63
2021/12/22 04:40:32;;;;;;;19.58;13.63;;;30.40;99.90;;;;;;5074831;28;20033;-64
2021/12/22 04:42:58;;;;;;;15.77;10.48;;;30.40;99.90;;;;;;5075827;28;20035;-63
2021/12/22 04:45:25;;;;;;;10.65;8.43;;;30.40;99.90;;;;;;5079961;28;20091;-63
2021/12/22 04:47:52;;;;;;;27.88;11.13;;;30.40;99.90;;;;;;5075175;28;20031;-64
2021/12/22 04:50:22;;;;;;;12.52;8.93;;;30.30;99.90;;;;;;5074234;28;20066;-64
2021/12/22 04:52:58;;;;;;;14.52;9.60;;;30.10;98.70;;;;;;5072156;28;20024;-64
2021/12/22 04:55:26;;;;;;;16.50;11.20;;;30.10;99.60;;;;;;5072715;28;20098;-62
2021/12/22 04:57:55;;;;;;;13.32;11.35;;;30.30;99.90;;;;;;5073901;28;20354;-64
2021/12/22 05:00:26;;;;;;;18.75;12.75;;;30.40;98.70;;;;;;5072560;28;20017;-62
2021/12/22 05:02:54;;;;;;;25.90;12.83;;;30.60;96.40;;;;;;5074407;28;20096;-62
2021/12/22 05:05:21;;;;;;;16.55;11.30;;;30.50;99.90;;;;;;5073920;28;20292;-62
2021/12/22 05:07:47;;;;;;;15.13;10.85;;;30.40;99.60;;;;;;5076807;28;20522;-64
2021/12/22 05:10:16;;;;;;;15.60;11.18;;;30.40;98.00;;;;;;5075331;28;20063;-63
2021/12/22 05:12:43;;;;;;;22.05;12.00;;;30.50;99.40;;;;;;5076309;28;20024;-62
2021/12/22 05:15:11;;;;;;;29.15;11.55;;;30.60;99.80;;;;;;5076075;28;20269;-64
2021/12/22 05:20:07;;;;;;;31.08;12.15;;;30.70;97.10;;;;;;5074127;28;20024;-63
2021/12/22 05:22:34;;;;;;;24.77;13.10;;;30.70;97.10;;;;;;5074292;28;20067;-62
2021/12/22 05:25:02;;;;;;;24.95;15.60;;;30.70;99.50;;;;;;5074752;28;20381;-62
2021/12/22 05:27:30;;;;;;;27.75;14.27;;;30.60;99.00;;;;;;5074656;28;20032;-62
2021/12/22 05:29:57;;;;;;;28.85;13.77;;;30.50;98.00;;;;;;5072318;28;20024;-62
2021/12/22 05:32:30;;;;;;;16.13;12.45;;;30.40;98.10;;;;;;5074952;28;20123;-63
2021/12/22 05:34:57;;;;;;;22.73;14.07;;;30.50;98.20;;;;;;5074740;28;20034;-62
2021/12/22 05:37:24;;;;;;;20.88;13.65;;;30.70;99.00;;;;;;5074741;28;20031;-62
2021/12/22 05:39:50;;;;;;;43.00;31.52;;;31.00;97.00;;;;;;5074327;28;20025;-63
2021/12/22 05:42:19;;;;;;;25.55;18.42;;;31.00;97.60;;;;;;5073974;28;20541;-62
2021/12/22 05:44:46;;;;;;;21.15;14.90;;;31.20;96.70;;;;;;5073559;28;20358;-62
2021/12/22 05:47:12;;;;;;;21.08;15.40;;;31.20;94.50;;;;;;5067934;28;20214;-63
2021/12/22 05:49:40;;;;;;;35.53;24.73;;;31.10;94.40;;;;;;5073713;28;20568;-63
2021/12/22 05:52:07;;;;;;;28.63;16.15;;;31.20;96.50;;;;;;5074513;28;20496;-63
2021/12/22 05:54:34;;;;;;;20.42;16.15;;;31.00;96.30;;;;;;5073814;28;20032;-63
2021/12/22 05:57:00;;;;;;;17.98;14.38;;;31.00;96.70;;;;;;5073424;28;20378;-63
2021/12/22 05:59:27;;;;;;;21.90;14.13;;;31.00;93.80;;;;;;5073857;28;20571;-68
2021/12/22 06:01:54;;;;;;;17.48;14.35;;;31.00;94.60;;;;;;5073358;28;20024;-61
2021/12/22 06:04:20;;;;;;;21.08;15.95;;;31.10;94.90;;;;;;5073955;28;20039;-61
2021/12/22 06:06:47;;;;;;;18.77;13.18;;;31.10;94.70;;;;;;5073452;28;20021;-62
2021/12/22 06:09:14;;;;;;;18.30;13.30;;;31.20;94.60;;;;;;5072621;28;20020;-65
2021/12/22 06:11:41;;;;;;;19.40;13.52;;;31.40;95.00;;;;;;5066098;28;20115;-61
2021/12/22 06:14:07;;;;;;;19.02;13.63;;;31.70;94.80;;;;;;5066566;28;20032;-63
2021/12/22 06:16:34;;;;;;;20.52;13.52;;;31.70;94.50;;;;;;5073009;28;20050;-62
2021/12/22 06:19:04;;;;;;;70.50;53.95;;;31.90;93.50;;;;;;5068147;28;20052;-62
2021/12/22 06:21:31;;;;;;;17.17;13.25;;;31.80;93.40;;;;;;5073179;28;20388;-63
2021/12/22 06:23:58;;;;;;;20.65;11.55;;;32.20;91.70;;;;;;5073444;28;20036;-62
2021/12/22 06:26:25;;;;;;;17.98;11.23;;;32.10;91.70;;;;;;5073150;28;20442;-65
2021/12/22 06:28:51;;;;;;;12.65;10.43;;;32.00;91.90;;;;;;5072720;28;20075;-62
2021/12/22 06:31:18;;;;;;;21.70;11.43;;;31.80;91.50;;;;;;5073142;28;20421;-63
2021/12/22 06:33:45;;;;;;;83.55;60.78;;;31.90;91.70;;;;;;5072780;28;20077;-63
2021/12/22 06:36:12;;;;;;;15.43;11.32;;;31.90;92.60;;;;;;5073040;28;20434;-62
2021/12/22 06:38:40;;;;;;;12.90;11.15;;;31.90;92.40;;;;;;5070542;28;20039;-62
2021/12/22 06:41:07;;;;;;;18.25;11.90;;;31.90;91.60;;;;;;5073043;28;20024;-63
2021/12/22 06:43:33;;;;;;;17.92;11.98;;;31.80;92.10;;;;;;5073347;28;20024;-62
2021/12/22 06:46:00;;;;;;;21.85;13.07;;;31.70;92.40;;;;;;5072599;28;20032;-63
2021/12/22 06:48:27;;;;;;;16.92;12.35;;;31.70;92.50;;;;;;5073127;28;20035;-63
2021/12/22 06:50:53;;;;;;;16.73;11.75;;;31.60;91.30;;;;;;5074293;28;20046;-63
2021/12/22 06:53:20;;;;;;;17.92;12.60;;;31.50;92.10;;;;;;5073345;28;20024;-63
2021/12/22 06:55:47;;;;;;;16.33;12.05;;;31.50;94.00;;;;;;5072225;28;20074;-61
2021/12/22 06:58:14;;;;;;;28.65;14.02;;;31.50;94.00;;;;;;5073354;28;20047;-63
2021/12/22 07:00:41;;;;;;;24.48;13.38;;;31.60;94.90;;;;;;5071855;28;20020;-63
2021/12/22 07:03:07;;;;;;;23.10;13.32;;;31.50;93.30;;;;;;5072431;28;20016;-64
2021/12/22 07:05:34;;;;;;;19.38;13.00;;;31.40;93.30;;;;;;5073191;28;20031;-63
2021/12/22 07:08:01;;;;;;;22.92;15.88;;;31.40;94.20;;;;;;5072084;28;20095;-64
2021/12/22 07:10:27;;;;;;;25.05;20.02;;;31.40;94.30;;;;;;5072241;28;20490;-63
2021/12/22 07:12:54;;;;;;;26.98;20.83;;;31.30;97.60;;;;;;5071848;28;20029;-64
2021/12/22 07:15:21;;;;;;;26.77;20.25;;;31.10;99.00;;;;;;5073322;28;20543;-62
2021/12/22 07:17:50;;;;;;;31.80;19.50;;;31.20;99.30;;;;;;5073990;28;20032;-64
2021/12/22 07:20:17;;;;;;;31.17;22.63;;;31.40;98.10;;;;;;5073008;28;20038;-63
2021/12/22 07:22:44;;;;;;;22.88;17.75;;;31.60;97.30;;;;;;5072837;28;20033;-64
2021/12/22 07:25:13;;;;;;;20.65;15.98;;;31.90;95.50;;;;;;5072230;28;20017;-65
2021/12/22 07:27:40;;;;;;;36.13;27.35;;;32.00;93.60;;;;;;5072544;28;20054;-64
2021/12/22 07:30:08;;;;;;;49.00;31.63;;;32.00;95.00;;;;;;5072171;28;20047;-63
2021/12/22 07:32:34;;;;;;;40.47;27.48;;;32.10;94.20;;;;;;5072394;28;20031;-63
2021/12/22 07:35:26;;;;;;;35.90;27.15;;;32.00;94.80;;;;;;5072682;28;20024;-63
2021/12/22 07:38:07;;;;;;;40.30;33.03;;;32.20;93.10;;;;;;5069384;28;20436;-64
2021/12/22 07:40:34;;;;;;;58.17;41.33;;;32.20;92.10;;;;;;5069722;28;20012;-63
2021/12/22 07:43:00;;;;;;;83.90;63.97;;;32.00;92.00;;;;;;5071647;28;20140;-63
2021/12/22 07:45:27;;;;;;;41.00;29.10;;;31.80;91.40;;;;;;5072832;28;20028;-64
2021/12/22 07:47:54;;;;;;;38.05;28.83;;;31.80;94.40;;;;;;5072152;28;20029;-64
2021/12/22 07:50:20;;;;;;;30.20;26.23;;;31.90;94.20;;;;;;5072394;28;20548;-63
2021/12/22 07:52:47;;;;;;;37.72;26.75;;;31.90;92.20;;;;;;5072823;28;20114;-63
2021/12/22 07:55:14;;;;;;;53.60;40.45;;;31.80;93.20;;;;;;5072870;28;20024;-62
2021/12/22 07:57:40;;;;;;;30.38;22.50;;;31.90;92.20;;;;;;5072033;28;20116;-62
2021/12/22 08:00:08;;;;;;;31.73;22.85;;;31.80;92.70;;;;;;5072309;28;20025;-63
2021/12/22 08:02:37;;;;;;;29.23;18.88;;;31.80;91.80;;;;;;5072912;28;20025;-62
2021/12/22 08:05:04;;;;;;;37.20;23.15;;;31.80;92.20;;;;;;5070064;28;20025;-63
2021/12/22 08:07:31;;;;;;;76.05;23.98;;;31.80;93.50;;;;;;5071619;28;20028;-63
2021/12/22 08:09:59;;;;;;;38.90;17.25;;;31.80;92.80;;;;;;5072745;28;20039;-62
2021/12/22 08:12:25;;;;;;;24.85;18.77;;;31.80;91.10;;;;;;5072262;28;20420;-63
2021/12/22 08:14:52;;;;;;;69.53;37.90;;;31.70;92.10;;;;;;5071976;28;20017;-63
2021/12/22 08:17:20;;;;;;;57.25;34.20;;;31.60;91.70;;;;;;5072166;28;20083;-63
2021/12/22 08:19:48;;;;;;;53.60;35.72;;;31.60;91.10;;;;;;5072562;28;20125;-63
2021/12/22 08:22:15;;;;;;;52.08;33.15;;;31.60;93.60;;;;;;5070539;28;20020;-62
2021/12/22 08:24:42;;;;;;;35.97;22.80;;;31.60;93.20;;;;;;5073244;28;20376;-62
2021/12/22 08:27:09;;;;;;;33.85;23.98;;;31.60;92.70;;;;;;5075715;28;20036;-63
2021/12/22 08:29:41;;;;;;;32.08;23.80;;;31.60;93.10;;;;;;5074870;28;20024;-61
2021/12/22 08:32:08;;;;;;;20.23;15.63;;;31.80;92.50;;;;;;5076055;28;20024;-62
2021/12/22 08:34:38;;;;;;;18.45;13.10;;;31.90;91.70;;;;;;5072977;28;20077;-64
2021/12/22 08:39:45;;;;;;;35.15;14.32;;;32.00;90.60;;;;;;5074330;28;20028;-62
2021/12/22 08:42:12;;;;;;;17.38;12.27;;;31.90;90.00;;;;;;5074868;28;20020;-63
2021/12/22 08:44:38;;;;;;;20.60;13.70;;;31.90;88.70;;;;;;5074567;28;20048;-63
2021/12/22 08:47:06;;;;;;;25.98;14.23;;;31.90;88.80;;;;;;5075270;28;20058;-63
2021/12/22 08:49:35;;;;;;;16.85;12.85;;;31.90;90.50;;;;;;5072555;28;20100;-63
2021/12/22 08:52:03;;;;;;;24.05;15.43;;;31.80;87.00;;;;;;5071734;28;20031;-64
2021/12/22 08:54:29;;;;;;;19.50;13.18;;;31.90;91.50;;;;;;5073865;28;20027;-65
2021/12/22 08:56:57;;;;;;;23.05;12.77;;;32.00;91.30;;;;;;5073846;28;20074;-62
2021/12/22 08:59:24;;;;;;;21.80;13.13;;;31.90;90.60;;;;;;5074445;28;20452;-62
2021/12/22 09:01:52;;;;;;;23.90;11.80;;;32.00;91.00;;;;;;5073831;28;20389;-62
2021/12/22 09:04:22;;;;;;;22.27;14.15;;;31.90;90.70;;;;;;5073605;28;20095;-66
2021/12/22 09:06:51;;;;;;;17.77;12.48;;;32.00;91.20;;;;;;5074080;28;20024;-64
2021/12/22 09:09:20;;;;;;;33.28;20.30;;;32.10;90.20;;;;;;5074074;28;20468;-63
2021/12/22 09:11:48;;;;;;;24.52;13.95;;;32.20;91.00;;;;;;5074991;28;20031;-61
2021/12/22 09:14:16;;;;;;;96.55;74.38;;;32.10;88.80;;;;;;5073718;28;20489;-64
2021/12/22 09:16:43;;;;;;;49.25;30.67;;;32.10;90.70;;;;;;5073980;28;20375;-63
2021/12/22 09:19:10;;;;;;;23.70;16.63;;;32.20;91.70;;;;;;5074112;28;20068;-65
2021/12/22 09:21:37;;;;;;;33.80;26.33;;;32.20;91.30;;;;;;5073539;28;20066;-62
2021/12/22 09:24:05;;;;;;;33.17;14.85;;;32.30;92.00;;;;;;5077073;28;20055;-64
2021/12/22 09:26:31;;;;;;;24.73;15.50;;;32.20;90.60;;;;;;5074490;28;20009;-62
2021/12/22 09:28:59;;;;;;;25.58;16.77;;;32.20;88.80;;;;;;5073176;28;20059;-63
2021/12/22 09:31:26;;;;;;;36.42;20.20;;;32.20;90.50;;;;;;5074753;28;20048;-63
2021/12/22 09:33:53;;;;;;;25.88;20.23;;;32.20;91.10;;;;;;5084882;28;20020;-63
2021/12/22 09:36:20;;;;;;;33.40;19.58;;;32.20;91.20;;;;;;5079289;28;20025;-65
2021/12/22 09:38:47;;;;;;;38.15;19.95;;;32.10;90.50;;;;;;5079915;28;20103;-66
2021/12/22 09:41:14;;;;;;;31.58;17.70;;;32.10;91.20;;;;;;5081507;28;20115;-67
2021/12/22 09:43:41;;;;;;;18.20;15.13;;;32.10;90.80;;;;;;5075492;28;20017;-64
2021/12/22 09:46:11;;;;;;;28.80;16.75;;;32.00;91.40;;;;;;5074814;28;20044;-63
2021/12/22 09:53:53;;;;;;;29.40;17.48;;;31.90;90.90;;;;;;5074195;28;20059;-64
2021/12/22 09:56:24;;;;;;;27.15;16.73;;;31.90;92.20;;;;;;5081034;28;20118;-64
2021/12/22 09:58:51;;;;;;;32.83;20.30;;;31.90;91.60;;;;;;5077438;28;20108;-64
2021/12/22 10:01:23;;;;;;;34.63;19.70;;;31.90;91.20;;;;;;5087843;28;20032;-68
2021/12/22 10:03:57;;;;;;;33.95;18.58;;;31.90;91.50;;;;;;5094744;28;20369;-66
2021/12/22 10:06:24;;;;;;;33.60;19.13;;;31.90;92.60;;;;;;5081199;28;20488;-65
2021/12/22 10:08:54;;;;;;;37.15;19.65;;;31.90;92.00;;;;;;5094113;28;20028;-64
2021/12/22 10:11:22;;;;;;;44.50;22.67;;;31.80;92.80;;;;;;5089365;28;20050;-65
2021/12/22 10:13:48;;;;;;;47.15;24.65;;;31.70;91.90;;;;;;5079565;28;20103;-65
2021/12/22 10:16:23;;;;;;;33.47;16.80;;;31.70;92.10;;;;;;5077198;28;20044;-63
2021/12/22 10:19:04;;;;;;;30.02;19.98;;;31.60;91.20;;;;;;5078170;28;20132;-66
2021/12/22 10:21:33;;;;;;;42.42;23.48;;;31.50;92.10;;;;;;5076099;28;20070;-64
2021/12/22 10:24:03;;;;;;;34.55;22.95;;;31.60;92.60;;;;;;5073758;28;20024;-65
2021/12/22 10:26:30;;;;;;;60.50;34.08;;;31.70;92.10;;;;;;5073884;28;20111;-64
2021/12/22 10:29:01;;;;;;;59.97;36.28;;;31.60;92.60;;;;;;5065676;28;20101;-66
2021/12/22 10:31:45;;;;;;;63.45;37.03;;;31.50;93.20;;;;;;5069844;28;20028;-64
2021/12/22 10:34:17;;;;;;;52.50;30.58;;;31.60;92.50;;;;;;5073084;28;22202;-64
2021/12/22 10:36:52;;;;;;;36.70;24.50;;;31.60;92.60;;;;;;5081966;28;20085;-64
2021/12/22 10:39:21;;;;;;;69.97;43.15;;;31.50;92.40;;;;;;5068630;28;20114;-64
2021/12/22 10:41:49;;;;;;;152.57;113.28;;;31.50;92.90;;;;;;5073384;28;20029;-64
2021/12/22 10:44:16;;;;;;;73.53;32.20;;;31.40;92.40;;;;;;5073280;28;20114;-64
2021/12/22 10:46:43;;;;;;;91.28;26.52;;;31.40;94.00;;;;;;5076447;28;20016;-65
2021/12/22 10:49:21;;;;;;;59.13;31.17;;;31.40;92.90;;;;;;5073663;28;20334;-64
2021/12/22 10:51:58;;;;;;;67.28;40.22;;;31.40;93.20;;;;;;5069350;28;20115;-65
2021/12/22 10:54:34;;;;;;;46.10;30.10;;;31.40;94.10;;;;;;5077136;28;20481;-65
2021/12/22 10:57:04;;;;;;;50.88;34.05;;;31.30;92.80;;;;;;5070301;28;20094;-64
2021/12/22 10:59:41;;;;;;;67.45;40.67;;;31.20;94.20;;;;;;5086312;28;20496;-66
2021/12/22 11:02:10;;;;;;;65.35;38.40;;;31.30;94.40;;;;;;5079570;28;20028;-65
2021/12/22 11:04:44;;;;;;;61.45;40.97;;;31.30;94.00;;;;;;5064133;28;20035;-64
2021/12/22 11:07:21;;;;;;;87.47;50.45;;;31.30;93.80;;;;;;5070800;28;20382;-64
2021/12/22 11:09:48;;;;;;;65.00;44.17;;;31.20;95.30;;;;;;5059787;28;20367;-64
2021/12/22 11:12:17;;;;;;;70.32;41.72;;;31.20;94.70;;;;;;5053552;28;20045;-66
2021/12/22 11:14:51;;;;;;;90.20;41.40;;;31.20;95.10;;;;;;5075920;28;20486;-66
2021/12/22 11:17:21;;;;;;;67.78;39.80;;;31.20;96.00;;;;;;5084500;28;20036;-64
2021/12/22 11:20:04;;;;;;;66.18;34.13;;;31.20;95.50;;;;;;5091429;28;20032;-67
2021/12/22 11:25:22;;;;;;;53.05;30.88;;;31.00;95.80;;;;;;5074594;28;20031;-65
2021/12/22 11:27:51;;;;;;;56.35;33.80;;;31.10;96.50;;;;;;5072821;28;20366;-67
2021/12/22 11:30:19;;;;;;;67.05;39.95;;;31.00;97.20;;;;;;5067202;28;20537;-66
2021/12/22 11:32:47;;;;;;;107.63;62.78;;;31.00;97.60;;;;;;5071528;28;20105;-67
2021/12/22 11:35:16;;;;;;;98.10;57.65;;;30.90;98.00;;;;;;5066328;28;20040;-65
2021/12/22 11:37:44;;;;;;;76.55;49.60;;;30.90;98.00;;;;;;5058412;28;20020;-65
2021/12/22 11:40:12;;;;;;;78.63;47.90;;;30.90;98.50;;;;;;5073254;28;20029;-66
2021/12/22 11:42:40;;;;;;;84.93;56.17;;;30.80;99.40;;;;;;5062793;28;20022;-64
2021/12/22 11:45:19;;;;;;;127.47;92.10;;;30.90;99.50;;;;;;5067306;28;20033;-64
2021/12/22 11:47:49;;;;;;;115.70;77.63;;;30.90;99.50;;;;;;5067918;28;20521;-65
2021/12/22 11:50:23;;;;;;;97.95;73.50;;;30.80;99.40;;;;;;5073071;28;20074;-66
2021/12/22 11:52:56;;;;;;;71.13;45.15;;;30.80;99.90;;;;;;5072298;28;20020;-65
2021/12/22 11:55:26;;;;;;;349.33;312.92;;;30.60;98.40;;;;;;5072973;28;20031;-65
2021/12/22 11:58:14;;;;;;;65.43;40.58;;;30.50;98.80;;;;;;5074069;28;20111;-64
2021/12/22 12:00:51;;;;;;;60.33;34.53;;;30.50;99.30;;;;;;5075190;28;20059;-65
2021/12/22 12:03:28;;;;;;;61.38;36.05;;;30.50;99.60;;;;;;5075909;28;20028;-69
2021/12/22 12:06:21;;;;;;;73.32;36.75;;;30.50;99.90;;;;;;5076823;28;20052;-65
2021/12/22 12:08:51;;;;;;;75.28;42.45;;;30.50;99.90;;;;;;5076270;28;20025;-64
2021/12/22 12:11:47;;;;;;;65.15;35.45;;;30.50;99.90;;;;;;5076489;28;20028;-65
2021/12/22 12:22:50;;;;;;;76.32;39.83;;;30.40;99.90;;;;;;5055637;28;20044;-65
2021/12/22 12:25:20;;;;;;;79.05;41.55;;;30.30;99.90;;;;;;5055986;28;20066;-63
2021/12/22 12:27:53;;;;;;;63.75;37.53;;;30.30;99.90;;;;;;5056297;28;20036;-65
2021/12/22 12:30:37;;;;;;;93.05;56.55;;;30.10;99.90;;;;;;5055342;28;20040;-66
2021/12/22 12:33:06;;;;;;;71.97;45.38;;;30.10;99.90;;;;;;5054608;28;20151;-65
2021/12/22 12:35:35;;;;;;;78.85;44.58;;;30.20;99.90;;;;;;5055871;28;20095;-64
2021/12/22 12:38:01;;;;;;;94.13;51.85;;;30.20;99.90;;;;;;5055276;28;20313;-66
2021/12/22 12:40:51;;;;;;;94.03;54.20;;;30.10;99.90;;;;;;5055718;28;20025;-66
2021/12/22 12:43:18;;;;;;;90.72;48.25;;;30.10;99.90;;;;;;5053885;28;20029;-67
2021/12/22 12:45:48;;;;;;;75.65;44.13;;;30.10;99.90;;;;;;5045109;28;20381;-68
2021/12/22 12:48:30;;;;;;;71.25;38.38;;;30.10;99.90;;;;;;5052177;28;20474;-64
2021/12/22 12:51:20;;;;;;;73.90;35.45;;;30.10;99.90;;;;;;5038966;28;20041;-66
2021/12/22 12:53:51;;;;;;;58.03;32.88;;;30.10;99.90;;;;;;5035566;28;20025;-67
2021/12/22 12:56:19;;;;;;;57.97;33.95;;;30.10;99.90;;;;;;5035335;28;20035;-65
2021/12/22 12:59:00;;;;;;;68.13;37.15;;;30.00;99.90;;;;;;5048019;28;20469;-63
2021/12/22 13:01:34;;;;;;;77.72;43.42;;;30.00;99.90;;;;;;5055543;28;20035;-67
2021/12/22 13:04:00;;;;;;;70.65;42.33;;;30.00;99.90;;;;;;5055735;28;20025;-65
2021/12/22 13:06:27;;;;;;;76.75;41.45;;;30.00;99.90;;;;;;5055204;28;20113;-66
2021/12/22 13:08:53;;;;;;;68.82;40.90;;;29.90;99.90;;;;;;5054874;28;20029;-69
2021/12/22 13:11:20;;;;;;;66.07;41.50;;;29.90;99.90;;;;;;5054597;28;20025;-66